Time;durP1;ratioP1;P1;durP2;ratioP2;P2;SDS_P1;SDS_P2;PMS_P1;PMS_P2;Temp;Humidity;BMP_temperature;BMP_pressure;BME280_temperature;BME280_humidity;BME280_pressure;Samples;Min_cycle;Max_cycle;Signal;HPM_P1;HPM_P2
2021/04/10 00:00:19;;;;;;;11.45;6.45;;;;;;;4.52;50.78;101661.49;1706387;83;21178;-69
2021/04/10 00:02:52;;;;;;;12.15;7.58;;;;;;;4.49;50.87;101653.56;1702306;84;21213;-50
2021/04/10 00:05:23;;;;;;;10.70;7.17;;;;;;;4.48;50.92;101657.88;1703983;83;21150;-50
2021/04/10 00:07:51;;;;;;;9.38;5.83;;;;;;;4.48;50.89;101656.58;1708423;82;21204;-50
2021/04/10 00:10:21;;;;;;;8.98;5.53;;;;;;;4.46;50.86;101651.72;1702485;84;21158;-50
2021/04/10 00:12:48;;;;;;;9.28;5.75;;;;;;;4.43;50.91;101659.44;1702158;84;21195;-50
2021/04/10 00:15:18;;;;;;;8.58;5.83;;;;;;;4.35;50.95;101656.59;1708136;83;21185;-50
2021/04/10 00:17:46;;;;;;;8.93;4.30;;;;;;;4.29;51.00;101659.88;1708815;82;21178;-70
2021/04/10 00:20:19;;;;;;;8.28;5.03;;;;;;;4.25;50.97;101669.73;1702365;84;21489;-70
2021/04/10 00:22:47;;;;;;;6.95;4.58;;;;;;;4.16;50.36;101662.89;1702372;84;21566;-71
2021/04/10 00:25:18;;;;;;;8.60;5.10;;;;;;;4.06;50.28;101666.91;1712632;82;21142;-51
2021/04/10 00:27:46;;;;;;;10.55;5.80;;;;;;;3.98;50.45;101662.70;1704456;83;21155;-51
2021/04/10 00:30:15;;;;;;;15.68;9.30;;;;;;;3.92;50.65;101666.82;1702102;84;21186;-71
2021/04/10 00:32:42;;;;;;;19.45;10.55;;;;;;;3.85;50.85;101669.63;1708246;83;21191;-70
2021/04/10 00:35:14;;;;;;;9.73;5.80;;;;;;;3.81;51.16;101671.66;1708545;82;21150;-50
2021/04/10 00:37:41;;;;;;;10.40;7.35;;;;;;;3.74;50.90;101670.95;1702531;84;21225;-51
2021/04/10 00:40:11;;;;;;;11.60;7.10;;;;;;;3.62;50.93;101674.00;1702295;84;21185;-70
2021/04/10 00:42:39;;;;;;;9.33;6.22;;;;;;;3.53;50.87;101668.05;1708376;83;21146;-57
2021/04/10 00:45:08;;;;;;;10.58;6.62;;;;;;;3.44;50.79;101667.27;1708660;82;21166;-50
2021/04/10 00:47:36;;;;;;;11.22;7.05;;;;;;;3.49;50.81;101666.16;1702243;84;21174;-50
2021/04/10 00:50:07;;;;;;;8.83;5.67;;;;;;;3.46;50.96;101663.00;1702221;84;21704;-50
2021/04/10 00:52:35;;;;;;;7.85;4.83;;;;;;;3.41;51.09;101660.64;1711131;82;21968;-49
2021/04/10 00:55:06;;;;;;;8.80;5.80;;;;;;;3.37;51.26;101656.14;1714142;83;21593;-69
2021/04/10 00:57:34;;;;;;;11.45;6.60;;;;;;;3.24;51.73;101658.30;1719246;83;21288;-49
2021/04/10 01:00:04;;;;;;;10.43;6.95;;;;;;;3.26;51.94;101658.34;1718087;83;21585;-70
2021/04/10 01:02:32;;;;;;;;;;;;;;;3.26;52.23;101660.95;1719302;82;21142;-50
2021/04/10 01:05:01;;;;;;;8.43;5.20;;;;;;;3.30;52.33;101664.57;1719383;83;20258;-69
2021/04/10 01:07:29;;;;;;;10.80;7.00;;;;;;;3.32;52.35;101668.09;1716408;83;21130;-70
2021/04/10 01:09:57;;;;;;;9.50;6.12;;;;;;;3.33;52.41;101668.16;1722816;83;21142;-69
2021/04/10 01:12:59;;;;;;;10.32;6.17;;;;;;;3.34;52.31;101662.53;1715033;83;21142;-70
2021/04/10 01:16:04;;;;;;;9.40;6.12;;;;;;;3.33;52.50;101665.56;1731754;82;21170;-50
2021/04/10 01:19:00;;;;;;;10.88;6.47;;;;;;;3.34;52.37;101658.23;1718163;82;21192;-69
2021/04/10 01:21:38;;;;;;;11.18;7.12;;;;;;;3.31;52.23;101661.14;1715433;82;21739;-69
2021/04/10 01:24:41;;;;;;;10.63;6.70;;;;;;;3.25;52.21;101660.08;1702313;84;21166;-50
2021/04/10 01:27:26;;;;;;;11.25;6.37;;;;;;;3.19;52.37;101659.84;1704096;83;21166;-63
2021/04/10 01:30:03;;;;;;;13.20;7.47;;;;;;;3.16;52.41;101664.02;1709239;83;21182;-50
2021/04/10 01:32:35;;;;;;;11.55;6.65;;;;;;;3.08;52.29;101657.22;1731669;83;21103;-70
2021/04/10 01:35:11;;;;;;;13.13;7.58;;;;;;;3.02;52.37;101668.69;1731637;82;21672;-69
2021/04/10 01:37:58;;;;;;;22.85;11.70;;;;;;;3.00;52.43;101666.44;1716326;83;21138;-49
2021/04/10 01:40:30;;;;;;;28.47;15.43;;;;;;;2.97;52.55;101662.02;1725495;83;21174;-49
2021/04/10 01:42:58;;;;;;;21.90;11.50;;;;;;;2.96;52.71;101662.41;1731356;83;21289;-70
2021/04/10 01:45:27;;;;;;;24.12;13.93;;;;;;;2.96;52.51;101659.81;1711893;83;21103;-50
2021/04/10 01:47:58;;;;;;;22.62;13.95;;;;;;;2.93;52.48;101662.28;1724642;82;21357;-70
2021/04/10 01:50:26;;;;;;;23.92;13.80;;;;;;;2.88;52.59;101658.61;1710185;84;21174;-50
2021/04/10 01:52:55;;;;;;;22.85;13.05;;;;;;;2.84;52.77;101661.95;1702364;84;21228;-70
2021/04/10 01:55:24;;;;;;;21.20;11.33;;;;;;;2.82;52.80;101659.70;1721200;83;21177;-69
2021/04/10 01:57:56;;;;;;;16.70;9.15;;;;;;;2.83;52.63;101651.06;1711535;82;21162;-50
2021/04/10 02:00:29;;;;;;;14.65;8.45;;;;;;;2.81;52.58;101660.09;1732712;83;21291;-69
2021/04/10 02:02:57;;;;;;;12.85;6.85;;;;;;;2.79;52.74;101664.34;1732610;83;21191;-49
2021/04/10 02:05:26;;;;;;;11.05;6.53;;;;;;;2.71;52.87;101668.77;1760026;81;21121;-50
2021/04/10 02:08:02;;;;;;;9.90;6.30;;;;;;;2.68;53.08;101665.61;1843868;77;22684;-65
2021/04/10 02:10:31;;;;;;;12.18;6.28;;;;;;;2.60;53.62;101668.33;1793195;80;21138;-68
2021/04/10 02:13:04;;;;;;;10.63;6.40;;;;;;;2.64;53.82;101669.81;1790558;80;21142;-69
2021/04/10 02:15:45;;;;;;;12.40;7.45;;;;;;;2.75;53.87;101661.14;1833464;77;22154;-69
2021/04/10 02:18:15;;;;;;;10.33;6.40;;;;;;;2.80;53.73;101666.12;1793321;80;21154;-70
2021/04/10 02:20:43;;;;;;;11.80;6.15;;;;;;;2.88;53.60;101666.84;1793059;80;21162;-50
2021/04/10 02:23:14;;;;;;;9.50;6.08;;;;;;;2.92;53.28;101662.23;1778112;80;21199;-50
2021/04/10 02:25:45;;;;;;;10.25;5.67;;;;;;;2.92;53.10;101659.21;1792069;80;21103;-70
2021/04/10 02:28:15;;;;;;;9.38;6.00;;;;;;;2.88;53.01;101656.01;1793491;80;21735;-50
2021/04/10 02:30:45;;;;;;;9.33;5.43;;;;;;;2.87;53.10;101658.13;1792478;80;21122;-49
2021/04/10 02:33:39;;;;;;;9.50;5.67;;;;;;;2.86;52.96;101660.69;1766689;79;21831;-70
2021/04/10 02:36:11;;;;;;;10.88;5.72;;;;;;;2.77;52.77;101658.19;1725799;81;21625;-70
2021/04/10 02:38:39;;;;;;;8.45;5.47;;;;;;;2.66;52.92;101660.36;1775606;80;21234;-69
2021/04/10 02:41:18;;;;;;;9.13;5.40;;;;;;;2.64;53.08;101668.94;1738818;81;21312;-70
2021/04/10 02:43:58;;;;;;;10.78;6.30;;;;;;;2.65;53.02;101667.69;1770185;80;21604;-70
2021/04/10 02:46:30;;;;;;;11.70;7.80;;;;;;;2.63;52.84;101664.56;1761805;81;21134;-70
2021/04/10 02:49:02;;;;;;;10.75;6.80;;;;;;;2.57;52.85;101672.11;1762086;80;21114;-49
2021/04/10 02:51:43;;;;;;;11.73;6.33;;;;;;;2.53;52.98;101662.88;1767336;80;21143;-70
2021/04/10 02:54:13;;;;;;;10.32;5.80;;;;;;;2.51;52.96;101663.63;1796078;80;21130;-49
2021/04/10 02:56:45;;;;;;;11.93;6.40;;;;;;;2.50;53.15;101667.95;1796431;80;21126;-70
2021/04/10 02:59:12;;;;;;;12.10;6.37;;;;;;;2.50;52.78;101667.05;1787461;80;21086;-70
2021/04/10 03:01:41;;;;;;;12.40;6.50;;;;;;;2.47;52.83;101665.22;1790812;80;21082;-51
2021/04/10 03:04:10;;;;;;;12.13;6.62;;;;;;;2.44;52.88;101670.68;1796066;80;21162;-70
2021/04/10 03:06:38;;;;;;;13.65;6.03;;;;;;;2.38;52.84;101667.03;1796183;80;21154;-71
2021/04/10 03:09:07;;;;;;;11.95;6.95;;;;;;;2.29;52.81;101667.94;1786898;80;21154;-52
2021/04/10 03:11:35;;;;;;;12.07;7.05;;;;;;;2.23;53.04;101665.94;1791933;80;21311;-51
2021/04/10 03:14:05;;;;;;;10.15;6.08;;;;;;;2.24;53.29;101674.64;1795385;80;21225;-52
2021/04/10 03:16:34;;;;;;;10.82;6.30;;;;;;;2.26;53.50;101678.20;1787110;80;21636;-71
2021/04/10 03:19:06;;;;;;;10.78;6.83;;;;;;;2.29;53.54;101678.33;1769098;80;21700;-71
2021/04/10 03:21:40;;;;;;;14.18;7.17;;;;;;;2.33;53.52;101679.33;1760261;80;21288;-71
2021/04/10 03:24:10;;;;;;;13.88;6.22;;;;;;;2.35;53.72;101679.89;1741048;81;21174;-72
2021/04/10 03:26:38;;;;;;;10.50;6.20;;;;;;;2.37;53.87;101680.84;1760330;80;21142;-52
2021/04/10 03:29:07;;;;;;;8.78;5.75;;;;;;;2.38;53.41;101681.72;1746863;80;21167;-70
2021/04/10 03:31:36;;;;;;;10.85;6.50;;;;;;;2.30;53.13;101684.39;1732960;80;21123;-52
2021/04/10 03:34:06;;;;;;;8.40;5.58;;;;;;;2.21;53.27;101685.77;1760429;80;21142;-52
2021/04/10 03:36:34;;;;;;;11.90;6.58;;;;;;;2.22;53.62;101681.48;1763907;80;21099;-53
2021/04/10 03:39:02;;;;;;;10.75;6.28;;;;;;;2.26;53.73;101680.80;1667959;83;21176;-52
2021/04/10 03:41:32;;;;;;;11.18;6.12;;;;;;;2.33;53.84;101681.94;1708801;83;21147;-70
2021/04/10 03:44:00;;;;;;;12.05;6.58;;;;;;;2.34;53.75;101689.81;1767252;80;21280;-53
2021/04/10 03:46:28;;;;;;;11.70;6.45;;;;;;;2.34;53.44;101688.91;1767068;80;21593;-53
2021/04/10 03:48:56;;;;;;;12.25;6.20;;;;;;;2.31;53.48;101690.07;1766018;80;21098;-53
2021/04/10 03:51:27;;;;;;;11.43;5.97;;;;;;;2.31;53.30;101688.38;1760600;80;21561;-53
2021/04/10 03:53:57;;;;;;;9.30;5.20;;;;;;;2.33;53.32;101694.53;1766593;80;21143;-54
2021/04/10 03:56:26;;;;;;;17.57;6.83;;;;;;;2.28;54.05;101689.94;1767041;80;21158;-70
2021/04/10 03:58:56;;;;;;;18.27;6.75;;;;;;;2.28;54.05;101689.94;1766286;80;21493;-52
2021/04/10 04:01:25;;;;;;;18.90;7.50;;;;;;;2.35;54.45;101686.39;1759054;80;21138;-72
2021/04/10 04:03:54;;;;;;;15.55;8.25;;;;;;;2.45;54.41;101688.05;1764319;80;21142;-52
2021/04/10 04:06:24;;;;;;;13.98;6.78;;;;;;;2.56;54.53;101688.52;1765296;80;21296;-52
2021/04/10 04:08:52;;;;;;;19.20;7.83;;;;;;;2.63;54.59;101688.83;1767690;80;21150;-71
2021/04/10 04:11:21;;;;;;;13.70;7.40;;;;;;;2.70;54.72;101686.06;1761304;80;21271;-72
2021/04/10 04:13:49;;;;;;;14.58;8.43;;;;;;;2.81;54.90;101688.69;1766040;80;21170;-70
2021/04/10 04:16:17;;;;;;;15.50;7.42;;;;;;;2.93;55.00;101692.62;1766112;80;21141;-52
2021/04/10 04:18:45;;;;;;;11.30;6.20;;;;;;;3.08;55.06;101692.34;1756212;82;21172;-71
2021/04/10 04:21:12;;;;;;;11.15;7.15;;;;;;;3.20;55.10;101695.83;1772343;80;21146;-53
2021/04/10 04:23:40;;;;;;;15.15;8.58;;;;;;;3.28;55.07;101693.12;1765681;80;21123;-71
2021/04/10 04:26:07;;;;;;;13.65;7.78;;;;;;;3.36;54.90;101690.41;1761374;80;21110;-52
2021/04/10 04:28:35;;;;;;;10.93;7.10;;;;;;;3.42;55.08;101697.16;1756570;80;21174;-71
2021/04/10 04:31:03;;;;;;;13.88;7.72;;;;;;;3.54;55.12;101690.22;1771049;80;21574;-52
2021/04/10 04:33:31;;;;;;;12.70;8.25;;;;;;;3.70;55.35;101692.10;1776917;80;21585;-52
2021/04/10 04:35:59;;;;;;;17.30;8.78;;;;;;;3.82;55.23;101695.14;1762680;80;21296;-71
2021/04/10 04:38:26;;;;;;;19.98;8.68;;;;;;;3.94;55.78;101690.81;1756235;80;21134;-72
2021/04/10 04:40:54;;;;;;;16.42;8.43;;;;;;;4.15;55.73;101694.99;1769820;80;21115;-51
2021/04/10 04:43:22;;;;;;;12.63;7.80;;;;;;;4.33;55.44;101699.96;1759439;80;21162;-71
2021/04/10 04:45:50;;;;;;;12.55;7.80;;;;;;;4.48;55.30;101701.33;1760354;80;21160;-72
2021/04/10 04:48:18;;;;;;;16.90;8.83;;;;;;;4.61;55.27;101696.58;1770122;80;21134;-52
2021/04/10 04:50:46;;;;;;;14.40;9.15;;;;;;;4.75;55.64;101694.42;1769254;80;21146;-51
2021/04/10 04:53:14;;;;;;;17.35;10.43;;;;;;;4.97;55.55;101696.83;1761392;80;21646;-70
2021/04/10 04:55:41;;;;;;;15.83;8.68;;;;;;;5.20;55.62;101695.85;1770119;80;21142;-70
2021/04/10 04:58:09;;;;;;;18.15;9.25;;;;;;;5.38;55.91;101697.67;1759325;80;21138;-70
2021/04/10 05:00:37;;;;;;;14.03;9.90;;;;;;;5.58;56.32;101696.95;1769165;80;21127;-70
2021/04/10 05:03:05;;;;;;;34.92;19.80;;;;;;;5.84;56.41;101693.80;1760329;80;21159;-53
2021/04/10 05:05:32;;;;;;;26.07;16.17;;;;;;;6.15;56.21;101692.05;1756297;80;21581;-70
2021/04/10 05:08:00;;;;;;;22.95;13.58;;;;;;;6.40;55.81;101691.41;1775952;80;21181;-71
2021/04/10 05:10:28;;;;;;;24.18;13.65;;;;;;;6.67;56.08;101691.20;1718584;83;21187;-70
2021/04/10 05:12:56;;;;;;;22.10;14.03;;;;;;;7.02;56.64;101685.50;1778241;80;21151;-70
2021/04/10 05:15:24;;;;;;;17.15;10.68;;;;;;;7.26;56.25;101681.25;1756386;80;21269;-71
2021/04/10 05:17:52;;;;;;;18.65;9.93;;;;;;;7.55;56.35;101686.22;1770077;80;21189;-71
2021/04/10 05:20:20;;;;;;;12.75;8.83;;;;;;;7.83;55.00;101681.53;1779743;81;21194;-54
2021/04/10 05:22:53;;;;;;;16.80;9.55;;;;;;;7.99;54.35;101685.34;1782508;80;21570;-70
2021/04/10 05:25:22;;;;;;;12.30;8.43;;;;;;;8.15;54.10;101683.92;1776159;80;21166;-68
2021/04/10 05:27:50;;;;;;;15.38;9.68;;;;;;;8.34;53.69;101679.45;1784642;80;21304;-52
2021/04/10 05:30:19;;;;;;;12.03;8.75;;;;;;;8.71;54.05;101679.64;1786920;80;21340;-51
2021/04/10 05:32:47;;;;;;;12.50;8.35;;;;;;;9.08;53.44;101687.68;1780290;80;21155;-55
2021/04/10 05:35:15;;;;;;;13.08;8.53;;;;;;;9.33;52.61;101680.13;1766804;80;21171;-53
2021/04/10 05:37:44;;;;;;;12.78;8.18;;;;;;;9.61;52.01;101680.94;1787073;80;21146;-51
2021/04/10 05:40:12;;;;;;;12.70;7.92;;;;;;;9.90;51.31;101680.42;1786266;80;21119;-58
2021/04/10 05:42:39;;;;;;;12.95;8.15;;;;;;;10.15;50.69;101678.94;1757136;80;21289;-52
2021/04/10 05:45:10;;;;;;;11.70;8.60;;;;;;;10.30;50.43;101677.31;1768142;80;21155;-52
2021/04/10 05:47:40;;;;;;;13.15;7.67;;;;;;;10.49;50.59;101678.39;1786884;79;21150;-52
2021/04/10 05:50:10;;;;;;;11.28;7.15;;;;;;;10.77;49.98;101676.01;1787027;80;21161;-52
2021/04/10 05:52:38;;;;;;;11.40;8.53;;;;;;;11.09;49.65;101685.88;1766831;80;21147;-68
2021/04/10 05:55:08;;;;;;;11.00;8.35;;;;;;;11.40;49.23;101684.31;1763711;80;21288;-53
2021/04/10 05:57:36;;;;;;;12.13;7.85;;;;;;;11.66;48.85;101685.31;1756029;81;21292;-68
2021/04/10 06:00:05;;;;;;;11.08;7.65;;;;;;;11.90;48.10;101685.84;1757079;80;21656;-67
2021/04/10 06:02:35;;;;;;;11.35;7.05;;;;;;;12.09;46.94;101687.23;1763661;80;21131;-52
2021/04/10 06:05:05;;;;;;;10.80;7.65;;;;;;;12.28;46.43;101678.48;1774105;81;21183;-68
2021/04/10 06:07:33;;;;;;;12.80;7.87;;;;;;;12.46;46.18;101676.30;1777469;81;21154;-51
2021/04/10 06:10:00;;;;;;;13.68;8.30;;;;;;;12.60;45.80;101672.75;1780248;80;21613;-68
2021/04/10 06:12:29;;;;;;;12.23;7.28;;;;;;;12.70;45.46;101670.56;1754391;80;21158;-51
2021/04/10 06:14:57;;;;;;;10.45;6.87;;;;;;;12.88;43.94;101676.72;1748474;82;21163;-67
2021/04/10 06:17:24;;;;;;;13.60;7.97;;;;;;;12.98;43.99;101668.33;1741679;82;21100;-53
2021/04/10 06:19:52;;;;;;;12.37;7.30;;;;;;;13.14;44.20;101672.72;1723505;82;21164;-53
2021/04/10 06:22:21;;;;;;;9.50;7.05;;;;;;;13.38;43.48;101677.48;1745026;82;21167;-67
2021/04/10 06:24:51;;;;;;;9.68;6.80;;;;;;;13.61;42.80;101669.50;1747990;82;21601;-67
2021/04/10 06:27:19;;;;;;;11.15;7.22;;;;;;;13.79;42.30;101671.17;1748214;82;21154;-53
2021/04/10 06:29:47;;;;;;;11.40;6.25;;;;;;;13.95;41.15;101667.13;1757250;81;21123;-53
2021/04/10 06:32:15;;;;;;;10.20;6.78;;;;;;;14.18;39.98;101664.77;1768835;81;21567;-67
2021/04/10 06:34:42;;;;;;;9.43;6.37;;;;;;;14.34;39.70;101662.92;1768569;81;21203;-67
2021/04/10 06:37:10;;;;;;;11.90;6.97;;;;;;;14.61;39.79;101663.58;1764700;81;21556;-67
2021/04/10 06:39:38;;;;;;;8.65;5.62;;;;;;;14.89;39.39;101666.00;1769295;81;21135;-53
2021/04/10 06:42:08;;;;;;;11.28;6.58;;;;;;;15.16;38.97;101663.52;1777779;80;21115;-54
2021/04/10 06:44:36;;;;;;;9.88;6.05;;;;;;;15.43;38.63;101660.13;1757481;81;21301;-66
2021/04/10 06:47:04;;;;;;;10.00;5.30;;;;;;;15.62;34.86;101658.13;1773508;81;21151;-54
2021/04/10 06:49:32;;;;;;;8.90;4.70;;;;;;;15.61;33.13;101657.70;1704929;82;21172;-67
2021/04/10 06:52:00;;;;;;;8.23;5.55;;;;;;;15.68;34.55;101658.02;1747950;82;21176;-67
2021/04/10 06:54:31;;;;;;;8.70;4.80;;;;;;;15.94;35.04;101659.92;1747944;82;21156;-54
2021/04/10 06:57:16;;;;;;;9.85;4.80;;;;;;;16.29;34.55;101662.52;1765596;81;21582;-53
2021/04/10 07:00:05;;;;;;;8.63;5.10;;;;;;;16.61;33.38;101661.97;1741819;82;21614;-66
2021/04/10 07:02:34;;;;;;;13.28;5.03;;;;;;;16.88;32.22;101661.52;1742128;82;21512;-67
2021/04/10 07:05:04;;;;;;;8.53;4.47;;;;;;;17.11;32.88;101660.25;1744718;81;21143;-67
2021/04/10 07:07:33;;;;;;;7.57;4.93;;;;;;;17.39;31.73;101659.26;1752105;81;21131;-67
2021/04/10 07:10:05;;;;;;;8.43;4.75;;;;;;;17.60;29.09;101663.70;1739495;80;21806;-53
2021/04/10 07:12:33;;;;;;;7.10;4.58;;;;;;;17.58;27.26;101654.86;1778916;81;21139;-53
2021/04/10 07:15:01;;;;;;;7.55;4.53;;;;;;;17.32;29.14;101661.62;1766372;81;21144;-54
2021/04/10 07:17:29;;;;;;;6.40;3.90;;;;;;;17.25;26.60;101664.83;1756164;82;21108;-53
2021/04/10 07:19:58;;;;;;;6.05;4.05;;;;;;;17.09;27.22;101658.94;1777981;80;21127;-53
2021/04/10 07:22:26;;;;;;;5.42;3.80;;;;;;;17.28;28.18;101659.92;1787354;80;21123;-66
2021/04/10 07:24:54;;;;;;;6.12;3.75;;;;;;;17.55;28.86;101654.48;1778516;80;21138;-66
2021/04/10 07:27:24;;;;;;;5.95;3.67;;;;;;;18.04;28.83;101654.34;1787157;80;21140;-66
2021/04/10 07:29:56;;;;;;;7.12;3.75;;;;;;;18.53;29.48;101651.83;1785757;80;21122;-66
2021/04/10 07:32:32;;;;;;;;;;;;;;;18.99;27.29;101648.42;1763948;80;21175;-67
2021/04/10 07:35:04;;;;;;;4.92;3.40;;;;;;;19.21;26.76;101653.14;1761909;80;20145;-67
2021/04/10 07:37:39;;;;;;;5.33;3.05;;;;;;;19.32;27.22;101646.19;1770742;80;21501;-67
2021/04/10 07:40:11;;;;;;;5.87;3.00;;;;;;;19.55;23.47;101656.63;1790498;80;21139;-67
2021/04/10 07:42:44;;;;;;;4.08;2.67;;;;;;;20.03;25.01;101649.88;1790566;80;21542;-53
2021/04/10 07:45:34;;;;;;;4.20;2.77;;;;;;;20.33;21.15;101645.31;1768845;80;21564;-53
2021/04/10 07:48:08;;;;;;;3.65;2.22;;;;;;;20.29;18.33;101640.13;1787020;80;21182;-54
2021/04/10 07:50:37;;;;;;;4.42;2.80;;;;;;;19.98;21.91;101652.68;1757432;80;21201;-65
2021/04/10 07:53:26;;;;;;;4.05;2.55;;;;;;;20.37;22.93;101643.43;1756232;80;21225;-66
2021/04/10 07:55:57;;;;;;;3.90;2.30;;;;;;;20.89;23.55;101644.79;1770454;80;21107;-66
2021/04/10 07:58:34;;;;;;;4.28;2.50;;;;;;;20.48;22.77;101650.64;1787206;80;21149;-66
2021/04/10 08:01:11;;;;;;;3.87;2.80;;;;;;;20.64;23.10;101649.64;1787217;80;21574;-54
2021/04/10 08:03:43;;;;;;;4.75;2.77;;;;;;;20.73;21.26;101645.77;1786007;80;21106;-66
2021/04/10 08:06:13;;;;;;;3.90;2.22;;;;;;;20.61;19.86;101645.73;1776983;80;21324;-53
2021/04/10 08:08:52;;;;;;;3.67;2.50;;;;;;;21.33;19.29;101645.90;1779367;80;21190;-54
2021/04/10 08:11:42;;;;;;;4.33;2.52;;;;;;;21.64;20.49;101643.41;1775335;80;21150;-65
2021/04/10 08:14:13;;;;;;;4.90;2.47;;;;;;;22.08;21.08;101635.89;1771450;80;21115;-53
2021/04/10 08:16:48;;;;;;;4.00;2.02;;;;;;;22.52;22.04;101645.75;1765565;80;21616;-65
2021/04/10 08:19:17;;;;;;;4.72;2.55;;;;;;;22.73;19.43;101637.24;1753411;82;21622;-54
2021/04/10 08:21:49;;;;;;;4.17;2.45;;;;;;;22.11;20.81;101646.01;1750201;82;21147;-54
2021/04/10 08:24:30;;;;;;;3.77;2.65;;;;;;;23.01;18.65;101636.86;1749267;82;21127;-66
2021/04/10 08:27:02;;;;;;;4.53;2.92;;;;;;;22.66;16.50;101624.54;1753530;82;21285;-53
2021/04/10 08:29:30;;;;;;;3.87;2.70;;;;;;;21.73;18.06;101630.15;1753407;80;21200;-67
2021/04/10 08:31:59;;;;;;;3.98;2.58;;;;;;;22.16;18.78;101624.39;1739017;82;21131;-67
2021/04/10 08:34:26;;;;;;;3.87;2.62;;;;;;;22.54;18.85;101624.61;1753364;80;21313;-54
2021/04/10 08:36:58;;;;;;;4.25;2.52;;;;;;;23.02;20.84;101630.55;1753357;82;21147;-54
2021/04/10 08:39:36;;;;;;;5.28;3.15;;;;;;;23.35;18.80;101629.61;1753406;81;21115;-66
2021/04/10 08:42:05;;;;;;;4.15;2.87;;;;;;;22.65;16.66;101623.28;1737329;82;21202;-66
2021/04/10 08:44:35;;;;;;;4.15;2.30;;;;;;;21.97;19.45;101637.67;1734258;82;21174;-66
2021/04/10 08:47:03;;;;;;;3.42;2.40;;;;;;;22.02;19.50;101630.78;1753439;82;21171;-66
2021/04/10 08:49:37;;;;;;;4.20;2.70;;;;;;;22.22;21.24;101623.25;1752697;82;21128;-54
2021/04/10 08:52:12;;;;;;;4.08;2.80;;;;;;;22.56;21.25;101630.78;1748482;82;21613;-54
2021/04/10 08:54:41;;;;;;;3.90;2.77;;;;;;;22.85;20.34;101625.09;1753277;80;21170;-54
2021/04/10 08:57:13;;;;;;;3.30;2.50;;;;;;;22.94;18.87;101623.34;1753546;82;21179;-54
2021/04/10 08:59:46;;;;;;;7.45;2.77;;;;;;;22.96;19.09;101620.58;1751122;82;21172;-66
2021/04/10 09:02:20;;;;;;;4.83;2.85;;;;;;;23.25;20.90;101622.42;1727309;82;21174;-67
2021/04/10 09:05:01;;;;;;;5.00;2.70;;;;;;;23.60;20.16;101619.92;1753541;82;21103;-67
2021/04/10 09:07:55;;;;;;;8.43;3.05;;;;;;;23.83;19.34;101617.93;1753362;82;21178;-63
2021/04/10 09:10:27;;;;;;;5.97;4.45;;;;;;;23.96;19.05;101611.47;1727071;82;21123;-55
2021/04/10 09:13:19;;;;;;;5.10;3.65;;;;;;;23.81;16.08;101611.30;1746792;82;21174;-54
2021/04/10 09:15:47;;;;;;;4.70;3.25;;;;;;;22.92;15.96;101608.23;1753694;82;21576;-54
2021/04/10 09:18:17;;;;;;;7.95;3.05;;;;;;;22.13;18.20;101615.98;1772063;80;21136;-66
2021/04/10 09:20:49;;;;;;;4.45;2.77;;;;;;;23.00;18.54;101609.61;1756954;80;21131;-65
2021/04/10 09:23:30;;;;;;;4.53;2.95;;;;;;;23.46;18.74;101607.12;1756086;82;21603;-66
2021/04/10 09:26:16;;;;;;;4.30;3.00;;;;;;;23.14;16.85;101602.30;1756614;80;21167;-65
2021/04/10 09:29:08;;;;;;;8.70;3.00;;;;;;;22.52;18.82;101596.12;1760166;80;21318;-50
2021/04/10 09:31:49;;;;;;;5.05;2.50;;;;;;;22.95;21.59;101598.70;1764978;80;21151;-50
2021/04/10 09:34:59;;;;;;;4.33;2.95;;;;;;;23.29;21.97;101590.00;1776991;80;21178;-51
2021/04/10 09:37:37;;;;;;;12.13;3.58;;;;;;;24.40;21.57;101581.49;1817998;77;22161;-65
2021/04/10 09:40:20;;;;;;;3.70;2.60;;;;;;;25.02;17.87;101595.78;1791409;80;21106;-65
2021/04/10 09:42:52;;;;;;;5.53;3.10;;;;;;;24.59;16.28;101586.78;1772716;80;21200;-54
2021/04/10 09:45:29;;;;;;;4.03;2.67;;;;;;;24.23;17.18;101592.27;1791364;78;21524;-66
2021/04/10 09:48:07;;;;;;;4.60;3.17;;;;;;;24.20;17.50;101584.75;1793295;80;21135;-53
2021/04/10 09:50:46;;;;;;;4.17;2.72;;;;;;;24.00;17.11;101579.48;1763129;80;21189;-65
2021/04/10 09:53:22;;;;;;;4.90;2.90;;;;;;;23.96;17.97;101579.21;1788361;80;21195;-55
2021/04/10 09:56:08;;;;;;;3.27;2.40;;;;;;;24.25;18.43;101584.50;1797403;79;21167;-54
2021/04/10 09:58:46;;;;;;;5.53;2.27;;;;;;;24.68;18.81;101580.06;1789694;80;21158;-54
2021/04/10 10:01:26;;;;;;;6.40;2.80;;;;;;;25.19;18.35;101575.11;1770741;80;21281;-55
2021/04/10 10:03:56;;;;;;;5.20;2.80;;;;;;;25.63;19.80;101569.08;1722484;82;21132;-67
2021/04/10 10:06:30;;;;;;;5.10;2.80;;;;;;;26.12;19.88;101561.78;1751687;82;21321;-67
2021/04/10 10:09:00;;;;;;;3.90;2.45;;;;;;;26.47;19.04;101565.59;1735346;81;21166;-67
2021/04/10 10:11:27;;;;;;;4.47;2.70;;;;;;;26.75;18.36;101566.58;1732101;83;21190;-67
2021/04/10 10:13:57;;;;;;;4.47;2.47;;;;;;;26.86;17.97;101556.48;1747235;82;21720;-67
2021/04/10 10:16:27;;;;;;;3.98;2.47;;;;;;;26.98;17.86;101546.72;1744251;82;21128;-53
2021/04/10 10:18:57;;;;;;;3.55;2.60;;;;;;;27.03;17.43;101545.95;1730138;83;21152;-64
2021/04/10 10:21:27;;;;;;;3.80;2.85;;;;;;;27.07;17.12;101550.20;1724495;82;21546;-64
2021/04/10 10:23:59;;;;;;;4.58;2.98;;;;;;;27.06;15.65;101539.00;1670702;83;21222;-53
2021/04/10 10:26:38;;;;;;;5.28;2.90;;;;;;;26.81;16.43;101545.98;1728662;83;21291;-65
2021/04/10 10:29:12;;;;;;;5.12;3.20;;;;;;;26.41;14.38;101541.67;1725186;83;21159;-64
2021/04/10 10:31:46;;;;;;;6.92;3.30;;;;;;;25.55;15.71;101547.11;1742789;82;21277;-53
2021/04/10 10:34:15;;;;;;;6.05;2.80;;;;;;;25.22;15.42;101547.55;1752718;82;21162;-53
2021/04/10 10:36:45;;;;;;;3.83;2.70;;;;;;;24.79;14.95;101536.44;1715486;83;21184;-65
2021/04/10 10:39:39;;;;;;;8.40;3.35;;;;;;;24.59;16.13;101539.69;1701281;83;21183;-53
2021/04/10 10:42:08;;;;;;;5.78;3.65;;;;;;;24.92;18.13;101539.33;1702981;84;21167;-64
2021/04/10 10:44:39;;;;;;;8.68;2.95;;;;;;;25.60;17.81;101530.20;1703294;83;21199;-53
2021/04/10 10:47:10;;;;;;;4.12;3.10;;;;;;;25.68;14.02;101531.09;1702750;84;21350;-56
2021/04/10 10:49:38;;;;;;;7.22;3.60;;;;;;;25.07;14.53;101530.42;1701094;83;21167;-55
2021/04/10 10:52:17;;;;;;;4.92;3.40;;;;;;;24.21;16.01;101541.22;1702713;84;21570;-66
2021/04/10 10:54:47;;;;;;;5.47;3.35;;;;;;;24.26;17.78;101538.31;1702611;83;21111;-66
2021/04/10 10:57:17;;;;;;;6.90;2.83;;;;;;;24.78;16.11;101532.02;1701839;83;21219;-65
2021/04/10 10:59:46;;;;;;;6.37;3.17;;;;;;;25.02;16.58;101525.76;1694608;84;21278;-66
2021/04/10 11:02:19;;;;;;;7.92;3.30;;;;;;;25.36;17.48;101517.12;1702435;84;21334;-55
2021/04/10 11:04:48;;;;;;;3.17;2.40;;;;;;;25.97;18.08;101517.25;1700619;84;21615;-66
2021/04/10 11:07:23;;;;;;;9.83;7.22;;;;;;;26.43;16.40;101506.86;1685217;83;21183;-66
2021/04/10 11:09:51;;;;;;;16.70;13.08;;;;;;;26.11;13.81;101513.72;1677812;84;21163;-66
2021/04/10 11:12:20;;;;;;;6.42;4.72;;;;;;;25.38;14.16;101511.17;1702656;84;21194;-66
2021/04/10 11:14:58;;;;;;;7.75;4.20;;;;;;;25.04;14.57;101513.08;1702513;84;21135;-55
2021/04/10 11:17:33;;;;;;;5.37;3.87;;;;;;;24.75;15.45;101514.19;1678889;83;21151;-55
2021/04/10 11:20:04;;;;;;;5.60;3.70;;;;;;;25.02;17.14;101509.60;1702734;84;21192;-55
2021/04/10 11:22:31;;;;;;;6.05;3.45;;;;;;;25.46;15.40;101495.94;1698725;83;21594;-55
2021/04/10 11:25:01;;;;;;;18.40;16.40;;;;;;;25.91;15.01;101494.69;1698427;83;21140;-66
2021/04/10 11:27:34;;;;;;;10.08;6.58;;;;;;;25.24;13.93;101494.45;1695276;83;21180;-66
2021/04/10 11:30:11;;;;;;;6.80;4.47;;;;;;;24.58;14.39;101500.27;1697235;84;21169;-55
2021/04/10 11:32:45;;;;;;;5.62;3.98;;;;;;;24.02;14.10;101504.54;1714216;83;21163;-55
2021/04/10 11:35:20;;;;;;;6.15;3.98;;;;;;;23.62;15.23;101497.11;1706930;82;21144;-55
2021/04/10 11:37:53;;;;;;;6.60;3.90;;;;;;;23.62;15.46;101494.42;1723911;82;21214;-65
2021/04/10 11:40:32;;;;;;;5.28;4.20;;;;;;;24.03;15.65;101496.87;1735472;82;21143;-66
2021/04/10 11:43:06;;;;;;;5.80;4.12;;;;;;;24.27;15.23;101489.80;1734518;82;21867;-66
2021/04/10 11:45:40;;;;;;;7.12;3.90;;;;;;;24.12;15.11;101482.06;1733893;82;21195;-66